sensor_id;sensor_type;location;lat;lon;timestamp;P1;durP1;ratioP1;P2;durP2;ratioP2
16031;SDS011;8120;48.308;8.914;2023-01-23T00:01:20;24.23;;;13.70;;
16031;SDS011;8120;48.308;8.914;2023-01-23T00:03:52;27.37;;;15.00;;
16031;SDS011;8120;48.308;8.914;2023-01-23T00:06:22;24.27;;;14.87;;
16031;SDS011;8120;48.308;8.914;2023-01-23T00:08:50;28.83;;;15.17;;
16031;SDS011;8120;48.308;8.914;2023-01-23T00:11:19;26.63;;;15.00;;
16031;SDS011;8120;48.308;8.914;2023-01-23T00:13:48;27.77;;;14.57;;
16031;SDS011;8120;48.308;8.914;2023-01-23T00:16:18;24.70;;;15.17;;
16031;SDS011;8120;48.308;8.914;2023-01-23T00:18:48;24.63;;;13.47;;
16031;SDS011;8120;48.308;8.914;2023-01-23T00:21:17;28.20;;;15.37;;
16031;SDS011;8120;48.308;8.914;2023-01-23T00:23:48;21.57;;;13.07;;
16031;SDS011;8120;48.308;8.914;2023-01-23T00:26:18;23.57;;;14.10;;
16031;SDS011;8120;48.308;8.914;2023-01-23T00:28:48;24.50;;;13.63;;
16031;SDS011;8120;48.308;8.914;2023-01-23T00:31:17;28.93;;;15.27;;
16031;SDS011;8120;48.308;8.914;2023-01-23T00:33:46;22.50;;;13.33;;
16031;SDS011;8120;48.308;8.914;2023-01-23T00:36:14;22.80;;;14.57;;
16031;SDS011;8120;48.308;8.914;2023-01-23T00:38:42;20.67;;;12.10;;
16031;SDS011;8120;48.308;8.914;2023-01-23T00:41:11;25.13;;;13.80;;
16031;SDS011;8120;48.308;8.914;2023-01-23T00:43:39;26.23;;;11.80;;
16031;SDS011;8120;48.308;8.914;2023-01-23T00:46:07;24.37;;;13.77;;
16031;SDS011;8120;48.308;8.914;2023-01-23T00:48:34;28.10;;;14.07;;
16031;SDS011;8120;48.308;8.914;2023-01-23T00:51:02;24.77;;;13.67;;
16031;SDS011;8120;48.308;8.914;2023-01-23T00:53:31;26.33;;;14.13;;
16031;SDS011;8120;48.308;8.914;2023-01-23T00:55:58;23.53;;;13.90;;
16031;SDS011;8120;48.308;8.914;2023-01-23T00:58:28;26.97;;;14.50;;
16031;SDS011;8120;48.308;8.914;2023-01-23T01:00:56;27.37;;;14.67;;
16031;SDS011;8120;48.308;8.914;2023-01-23T01:03:23;22.03;;;12.90;;
16031;SDS011;8120;48.308;8.914;2023-01-23T01:05:51;24.87;;;13.83;;
16031;SDS011;8120;48.308;8.914;2023-01-23T01:08:19;28.63;;;15.47;;
16031;SDS011;8120;48.308;8.914;2023-01-23T01:10:47;26.90;;;15.83;;
16031;SDS011;8120;48.308;8.914;2023-01-23T01:13:15;26.10;;;13.93;;
16031;SDS011;8120;48.308;8.914;2023-01-23T01:15:48;27.53;;;14.40;;
16031;SDS011;8120;48.308;8.914;2023-01-23T01:18:18;27.10;;;14.20;;
16031;SDS011;8120;48.308;8.914;2023-01-23T01:20:46;29.70;;;15.43;;
16031;SDS011;8120;48.308;8.914;2023-01-23T01:23:15;28.07;;;14.00;;
16031;SDS011;8120;48.308;8.914;2023-01-23T01:25:43;28.90;;;15.93;;
16031;SDS011;8120;48.308;8.914;2023-01-23T01:28:11;27.73;;;14.53;;
16031;SDS011;8120;48.308;8.914;2023-01-23T01:30:39;30.63;;;15.97;;
16031;SDS011;8120;48.308;8.914;2023-01-23T01:33:08;24.43;;;14.67;;
16031;SDS011;8120;48.308;8.914;2023-01-23T01:35:37;26.90;;;14.60;;
16031;SDS011;8120;48.308;8.914;2023-01-23T01:38:06;27.97;;;17.27;;
16031;SDS011;8120;48.308;8.914;2023-01-23T01:40:34;31.37;;;15.17;;
16031;SDS011;8120;48.308;8.914;2023-01-23T01:43:03;21.47;;;12.93;;
16031;SDS011;8120;48.308;8.914;2023-01-23T01:48:32;29.57;;;16.10;;
16031;SDS011;8120;48.308;8.914;2023-01-23T01:51:03;30.60;;;16.17;;
16031;SDS011;8120;48.308;8.914;2023-01-23T01:53:34;30.83;;;16.53;;
16031;SDS011;8120;48.308;8.914;2023-01-23T01:56:03;29.23;;;16.37;;
16031;SDS011;8120;48.308;8.914;2023-01-23T01:58:31;29.47;;;15.67;;
16031;SDS011;8120;48.308;8.914;2023-01-23T02:01:00;30.23;;;15.60;;
16031;SDS011;8120;48.308;8.914;2023-01-23T02:03:27;28.03;;;14.63;;
16031;SDS011;8120;48.308;8.914;2023-01-23T02:05:57;28.50;;;15.40;;
16031;SDS011;8120;48.308;8.914;2023-01-23T02:08:25;24.97;;;14.07;;
16031;SDS011;8120;48.308;8.914;2023-01-23T02:10:58;27.83;;;15.43;;
16031;SDS011;8120;48.308;8.914;2023-01-23T02:13:29;26.57;;;15.37;;
16031;SDS011;8120;48.308;8.914;2023-01-23T02:16:02;24.80;;;14.23;;
16031;SDS011;8120;48.308;8.914;2023-01-23T02:18:32;29.87;;;15.93;;
16031;SDS011;8120;48.308;8.914;2023-01-23T02:21:04;26.67;;;15.47;;
16031;SDS011;8120;48.308;8.914;2023-01-23T02:23:36;24.90;;;14.33;;
16031;SDS011;8120;48.308;8.914;2023-01-23T02:26:16;24.13;;;13.80;;
16031;SDS011;8120;48.308;8.914;2023-01-23T02:28:48;27.13;;;14.97;;
16031;SDS011;8120;48.308;8.914;2023-01-23T02:31:18;25.37;;;14.63;;
16031;SDS011;8120;48.308;8.914;2023-01-23T02:33:48;25.13;;;12.33;;
16031;SDS011;8120;48.308;8.914;2023-01-23T02:36:19;21.93;;;12.70;;
16031;SDS011;8120;48.308;8.914;2023-01-23T02:38:51;22.90;;;13.80;;
16031;SDS011;8120;48.308;8.914;2023-01-23T02:41:24;23.43;;;14.90;;
16031;SDS011;8120;48.308;8.914;2023-01-23T02:43:56;25.93;;;14.10;;
16031;SDS011;8120;48.308;8.914;2023-01-23T02:46:26;23.67;;;13.03;;
16031;SDS011;8120;48.308;8.914;2023-01-23T02:48:55;24.67;;;12.93;;
16031;SDS011;8120;48.308;8.914;2023-01-23T02:51:23;24.83;;;13.70;;
16031;SDS011;8120;48.308;8.914;2023-01-23T02:53:51;23.13;;;13.93;;
16031;SDS011;8120;48.308;8.914;2023-01-23T02:56:19;24.10;;;14.43;;
16031;SDS011;8120;48.308;8.914;2023-01-23T02:58:48;27.07;;;14.17;;
16031;SDS011;8120;48.308;8.914;2023-01-23T03:01:33;20.63;;;11.27;;
16031;SDS011;8120;48.308;8.914;2023-01-23T03:04:02;31.07;;;16.83;;
16031;SDS011;8120;48.308;8.914;2023-01-23T03:06:32;26.17;;;14.70;;
16031;SDS011;8120;48.308;8.914;2023-01-23T03:09:03;23.27;;;13.63;;
16031;SDS011;8120;48.308;8.914;2023-01-23T03:11:35;22.83;;;13.27;;
16031;SDS011;8120;48.308;8.914;2023-01-23T03:14:06;25.27;;;15.10;;
16031;SDS011;8120;48.308;8.914;2023-01-23T03:16:36;27.00;;;14.83;;
16031;SDS011;8120;48.308;8.914;2023-01-23T03:19:06;25.80;;;16.93;;
16031;SDS011;8120;48.308;8.914;2023-01-23T03:21:35;24.13;;;14.03;;
16031;SDS011;8120;48.308;8.914;2023-01-23T03:24:05;26.80;;;16.43;;
16031;SDS011;8120;48.308;8.914;2023-01-23T03:26:36;31.53;;;14.10;;
16031;SDS011;8120;48.308;8.914;2023-01-23T03:29:06;29.93;;;15.43;;
16031;SDS011;8120;48.308;8.914;2023-01-23T03:31:56;22.63;;;12.77;;
16031;SDS011;8120;48.308;8.914;2023-01-23T03:34:24;25.27;;;14.17;;
16031;SDS011;8120;48.308;8.914;2023-01-23T03:36:52;21.60;;;11.57;;
16031;SDS011;8120;48.308;8.914;2023-01-23T03:39:20;18.60;;;9.33;;
16031;SDS011;8120;48.308;8.914;2023-01-23T03:42:05;18.47;;;11.17;;
16031;SDS011;8120;48.308;8.914;2023-01-23T03:44:34;19.90;;;11.20;;
16031;SDS011;8120;48.308;8.914;2023-01-23T03:47:02;20.47;;;11.73;;
16031;SDS011;8120;48.308;8.914;2023-01-23T03:49:30;14.73;;;7.90;;
16031;SDS011;8120;48.308;8.914;2023-01-23T03:51:58;12.57;;;6.50;;
16031;SDS011;8120;48.308;8.914;2023-01-23T03:54:26;11.23;;;6.50;;
16031;SDS011;8120;48.308;8.914;2023-01-23T03:56:54;9.10;;;5.40;;
16031;SDS011;8120;48.308;8.914;2023-01-23T03:59:22;8.47;;;4.63;;
16031;SDS011;8120;48.308;8.914;2023-01-23T04:01:51;12.20;;;5.97;;
16031;SDS011;8120;48.308;8.914;2023-01-23T04:04:19;8.40;;;4.97;;
16031;SDS011;8120;48.308;8.914;2023-01-23T04:06:47;7.63;;;4.37;;
16031;SDS011;8120;48.308;8.914;2023-01-23T04:09:15;7.67;;;4.20;;
16031;SDS011;8120;48.308;8.914;2023-01-23T04:11:42;8.27;;;4.53;;
16031;SDS011;8120;48.308;8.914;2023-01-23T04:14:10;7.23;;;4.03;;
16031;SDS011;8120;48.308;8.914;2023-01-23T04:16:38;5.40;;;3.03;;
16031;SDS011;8120;48.308;8.914;2023-01-23T04:19:07;5.87;;;3.13;;
16031;SDS011;8120;48.308;8.914;2023-01-23T04:21:35;4.40;;;2.70;;
16031;SDS011;8120;48.308;8.914;2023-01-23T04:24:03;5.60;;;3.53;;
16031;SDS011;8120;48.308;8.914;2023-01-23T04:26:31;6.60;;;3.90;;
16031;SDS011;8120;48.308;8.914;2023-01-23T04:29:00;3.60;;;2.47;;
16031;SDS011;8120;48.308;8.914;2023-01-23T04:31:28;6.40;;;3.60;;
16031;SDS011;8120;48.308;8.914;2023-01-23T04:33:56;4.77;;;2.87;;
16031;SDS011;8120;48.308;8.914;2023-01-23T04:36:26;3.73;;;2.63;;
16031;SDS011;8120;48.308;8.914;2023-01-23T04:38:53;10.20;;;5.60;;
16031;SDS011;8120;48.308;8.914;2023-01-23T04:41:22;17.80;;;8.70;;
16031;SDS011;8120;48.308;8.914;2023-01-23T04:43:51;15.93;;;8.23;;
16031;SDS011;8120;48.308;8.914;2023-01-23T04:46:19;9.50;;;6.07;;
16031;SDS011;8120;48.308;8.914;2023-01-23T04:48:49;12.40;;;6.27;;
16031;SDS011;8120;48.308;8.914;2023-01-23T04:51:17;9.23;;;4.33;;
16031;SDS011;8120;48.308;8.914;2023-01-23T04:53:46;4.37;;;2.13;;
16031;SDS011;8120;48.308;8.914;2023-01-23T04:56:14;6.03;;;3.20;;
16031;SDS011;8120;48.308;8.914;2023-01-23T04:58:42;4.77;;;3.00;;
16031;SDS011;8120;48.308;8.914;2023-01-23T05:01:09;4.67;;;3.33;;
16031;SDS011;8120;48.308;8.914;2023-01-23T05:03:37;5.47;;;3.30;;
16031;SDS011;8120;48.308;8.914;2023-01-23T05:06:05;4.67;;;3.13;;
16031;SDS011;8120;48.308;8.914;2023-01-23T05:08:33;4.93;;;2.90;;
16031;SDS011;8120;48.308;8.914;2023-01-23T05:11:02;4.90;;;3.03;;
16031;SDS011;8120;48.308;8.914;2023-01-23T05:13:30;7.83;;;3.80;;
16031;SDS011;8120;48.308;8.914;2023-01-23T05:15:58;14.97;;;9.53;;
16031;SDS011;8120;48.308;8.914;2023-01-23T05:18:26;17.50;;;9.67;;
16031;SDS011;8120;48.308;8.914;2023-01-23T05:20:54;16.13;;;10.53;;
16031;SDS011;8120;48.308;8.914;2023-01-23T05:23:22;21.07;;;12.17;;
16031;SDS011;8120;48.308;8.914;2023-01-23T05:25:50;18.07;;;10.67;;
16031;SDS011;8120;48.308;8.914;2023-01-23T05:28:19;17.60;;;10.17;;
16031;SDS011;8120;48.308;8.914;2023-01-23T05:30:47;16.43;;;10.20;;
16031;SDS011;8120;48.308;8.914;2023-01-23T05:33:15;17.97;;;11.07;;
16031;SDS011;8120;48.308;8.914;2023-01-23T05:35:43;19.47;;;11.07;;
16031;SDS011;8120;48.308;8.914;2023-01-23T05:38:11;18.13;;;11.43;;
16031;SDS011;8120;48.308;8.914;2023-01-23T05:40:39;22.60;;;11.77;;
16031;SDS011;8120;48.308;8.914;2023-01-23T05:43:07;18.77;;;11.73;;
16031;SDS011;8120;48.308;8.914;2023-01-23T05:45:39;19.90;;;11.60;;
16031;SDS011;8120;48.308;8.914;2023-01-23T05:48:07;20.07;;;11.87;;
16031;SDS011;8120;48.308;8.914;2023-01-23T05:50:35;21.50;;;13.23;;
16031;SDS011;8120;48.308;8.914;2023-01-23T05:53:03;20.03;;;12.00;;
16031;SDS011;8120;48.308;8.914;2023-01-23T05:55:31;20.03;;;12.90;;
16031;SDS011;8120;48.308;8.914;2023-01-23T05:57:59;23.13;;;14.77;;
16031;SDS011;8120;48.308;8.914;2023-01-23T06:00:26;24.13;;;13.50;;
16031;SDS011;8120;48.308;8.914;2023-01-23T06:02:55;21.53;;;13.60;;
16031;SDS011;8120;48.308;8.914;2023-01-23T06:05:23;24.30;;;14.07;;
16031;SDS011;8120;48.308;8.914;2023-01-23T06:07:51;23.67;;;15.87;;
16031;SDS011;8120;48.308;8.914;2023-01-23T06:10:19;21.17;;;13.40;;
16031;SDS011;8120;48.308;8.914;2023-01-23T06:12:47;23.00;;;13.20;;
16031;SDS011;8120;48.308;8.914;2023-01-23T06:15:15;24.07;;;13.83;;
16031;SDS011;8120;48.308;8.914;2023-01-23T06:17:43;22.63;;;14.37;;
16031;SDS011;8120;48.308;8.914;2023-01-23T06:20:12;23.13;;;13.13;;
16031;SDS011;8120;48.308;8.914;2023-01-23T06:22:40;24.47;;;12.93;;
16031;SDS011;8120;48.308;8.914;2023-01-23T06:25:08;24.33;;;14.17;;
16031;SDS011;8120;48.308;8.914;2023-01-23T06:27:37;25.90;;;14.70;;
16031;SDS011;8120;48.308;8.914;2023-01-23T06:30:05;26.33;;;14.83;;
16031;SDS011;8120;48.308;8.914;2023-01-23T06:32:34;23.00;;;12.93;;
16031;SDS011;8120;48.308;8.914;2023-01-23T06:35:02;24.43;;;13.97;;
16031;SDS011;8120;48.308;8.914;2023-01-23T06:37:31;20.80;;;12.77;;
16031;SDS011;8120;48.308;8.914;2023-01-23T06:39:59;22.27;;;13.67;;
16031;SDS011;8120;48.308;8.914;2023-01-23T06:42:27;22.60;;;13.07;;
16031;SDS011;8120;48.308;8.914;2023-01-23T06:44:54;25.33;;;13.83;;
16031;SDS011;8120;48.308;8.914;2023-01-23T06:47:22;22.37;;;13.80;;
16031;SDS011;8120;48.308;8.914;2023-01-23T06:49:50;21.50;;;14.23;;
16031;SDS011;8120;48.308;8.914;2023-01-23T06:52:18;21.43;;;12.13;;
16031;SDS011;8120;48.308;8.914;2023-01-23T06:54:47;22.87;;;12.77;;
16031;SDS011;8120;48.308;8.914;2023-01-23T06:57:15;28.27;;;14.27;;
16031;SDS011;8120;48.308;8.914;2023-01-23T06:59:43;19.80;;;11.97;;
16031;SDS011;8120;48.308;8.914;2023-01-23T07:02:11;22.50;;;13.27;;
16031;SDS011;8120;48.308;8.914;2023-01-23T07:04:39;19.43;;;12.77;;
16031;SDS011;8120;48.308;8.914;2023-01-23T07:07:06;23.37;;;14.20;;
16031;SDS011;8120;48.308;8.914;2023-01-23T07:09:34;26.67;;;14.20;;
16031;SDS011;8120;48.308;8.914;2023-01-23T07:12:04;22.80;;;13.30;;
16031;SDS011;8120;48.308;8.914;2023-01-23T07:14:32;21.20;;;13.27;;
16031;SDS011;8120;48.308;8.914;2023-01-23T07:17:00;29.00;;;16.10;;
16031;SDS011;8120;48.308;8.914;2023-01-23T07:19:28;29.17;;;18.07;;
16031;SDS011;8120;48.308;8.914;2023-01-23T07:21:56;31.70;;;18.37;;
16031;SDS011;8120;48.308;8.914;2023-01-23T07:24:26;21.60;;;13.20;;
16031;SDS011;8120;48.308;8.914;2023-01-23T07:26:56;39.10;;;22.30;;
16031;SDS011;8120;48.308;8.914;2023-01-23T07:29:26;30.10;;;15.27;;
16031;SDS011;8120;48.308;8.914;2023-01-23T07:31:53;28.63;;;16.33;;
16031;SDS011;8120;48.308;8.914;2023-01-23T07:34:21;26.20;;;15.73;;
16031;SDS011;8120;48.308;8.914;2023-01-23T07:36:49;24.40;;;14.73;;
16031;SDS011;8120;48.308;8.914;2023-01-23T07:39:17;17.30;;;8.97;;
16031;SDS011;8120;48.308;8.914;2023-01-23T07:41:45;18.27;;;10.43;;
16031;SDS011;8120;48.308;8.914;2023-01-23T07:44:13;25.33;;;15.23;;
16031;SDS011;8120;48.308;8.914;2023-01-23T07:46:45;29.57;;;16.63;;
16031;SDS011;8120;48.308;8.914;2023-01-23T07:49:13;30.77;;;15.50;;
16031;SDS011;8120;48.308;8.914;2023-01-23T07:51:42;24.30;;;13.83;;
16031;SDS011;8120;48.308;8.914;2023-01-23T07:54:10;28.30;;;15.87;;
16031;SDS011;8120;48.308;8.914;2023-01-23T07:56:38;20.83;;;12.37;;
16031;SDS011;8120;48.308;8.914;2023-01-23T07:59:06;25.40;;;14.73;;
16031;SDS011;8120;48.308;8.914;2023-01-23T08:01:33;25.67;;;15.23;;
16031;SDS011;8120;48.308;8.914;2023-01-23T08:04:03;30.03;;;18.20;;
16031;SDS011;8120;48.308;8.914;2023-01-23T08:06:30;30.67;;;16.20;;
16031;SDS011;8120;48.308;8.914;2023-01-23T08:08:59;27.80;;;14.20;;
16031;SDS011;8120;48.308;8.914;2023-01-23T08:11:27;33.87;;;16.90;;
16031;SDS011;8120;48.308;8.914;2023-01-23T08:13:54;30.50;;;16.93;;
16031;SDS011;8120;48.308;8.914;2023-01-23T08:16:22;28.37;;;14.30;;
16031;SDS011;8120;48.308;8.914;2023-01-23T08:18:50;28.07;;;14.47;;
16031;SDS011;8120;48.308;8.914;2023-01-23T08:21:19;24.87;;;14.90;;
16031;SDS011;8120;48.308;8.914;2023-01-23T08:23:48;24.00;;;13.57;;
16031;SDS011;8120;48.308;8.914;2023-01-23T08:26:16;23.67;;;15.43;;
16031;SDS011;8120;48.308;8.914;2023-01-23T08:28:44;22.87;;;13.57;;
16031;SDS011;8120;48.308;8.914;2023-01-23T08:31:12;24.40;;;12.80;;
16031;SDS011;8120;48.308;8.914;2023-01-23T08:33:40;21.33;;;11.83;;
16031;SDS011;8120;48.308;8.914;2023-01-23T08:36:10;25.17;;;14.47;;
16031;SDS011;8120;48.308;8.914;2023-01-23T08:38:40;24.73;;;13.97;;
16031;SDS011;8120;48.308;8.914;2023-01-23T08:41:09;22.67;;;13.07;;
16031;SDS011;8120;48.308;8.914;2023-01-23T08:43:37;23.93;;;14.23;;
16031;SDS011;8120;48.308;8.914;2023-01-23T08:46:06;21.20;;;11.70;;
16031;SDS011;8120;48.308;8.914;2023-01-23T08:48:35;23.90;;;13.77;;
16031;SDS011;8120;48.308;8.914;2023-01-23T08:51:04;24.63;;;14.40;;
16031;SDS011;8120;48.308;8.914;2023-01-23T08:53:34;25.53;;;12.60;;
16031;SDS011;8120;48.308;8.914;2023-01-23T08:56:05;19.17;;;11.00;;
16031;SDS011;8120;48.308;8.914;2023-01-23T08:58:34;20.27;;;11.33;;
16031;SDS011;8120;48.308;8.914;2023-01-23T09:01:01;17.97;;;11.53;;
16031;SDS011;8120;48.308;8.914;2023-01-23T09:03:29;21.80;;;13.03;;
16031;SDS011;8120;48.308;8.914;2023-01-23T09:05:59;19.50;;;12.23;;
16031;SDS011;8120;48.308;8.914;2023-01-23T09:08:27;22.80;;;12.90;;
16031;SDS011;8120;48.308;8.914;2023-01-23T09:10:58;20.47;;;10.97;;
16031;SDS011;8120;48.308;8.914;2023-01-23T09:13:27;21.83;;;11.63;;
16031;SDS011;8120;48.308;8.914;2023-01-23T09:15:56;15.77;;;9.63;;
16031;SDS011;8120;48.308;8.914;2023-01-23T09:18:23;17.80;;;11.43;;
16031;SDS011;8120;48.308;8.914;2023-01-23T09:20:51;21.67;;;11.40;;
16031;SDS011;8120;48.308;8.914;2023-01-23T09:23:20;19.53;;;11.07;;
16031;SDS011;8120;48.308;8.914;2023-01-23T09:25:48;20.63;;;12.13;;
16031;SDS011;8120;48.308;8.914;2023-01-23T09:28:16;16.13;;;8.20;;
16031;SDS011;8120;48.308;8.914;2023-01-23T09:30:46;16.47;;;10.47;;
16031;SDS011;8120;48.308;8.914;2023-01-23T09:33:13;21.97;;;12.20;;
16031;SDS011;8120;48.308;8.914;2023-01-23T09:35:42;18.23;;;9.90;;
16031;SDS011;8120;48.308;8.914;2023-01-23T09:38:10;21.00;;;12.83;;
16031;SDS011;8120;48.308;8.914;2023-01-23T09:40:43;18.37;;;10.57;;
16031;SDS011;8120;48.308;8.914;2023-01-23T09:43:15;17.23;;;8.53;;
16031;SDS011;8120;48.308;8.914;2023-01-23T09:45:52;23.03;;;13.43;;
16031;SDS011;8120;48.308;8.914;2023-01-23T09:48:26;21.93;;;10.87;;
16031;SDS011;8120;48.308;8.914;2023-01-23T09:50:59;24.10;;;13.27;;
16031;SDS011;8120;48.308;8.914;2023-01-23T09:53:33;22.73;;;12.23;;
16031;SDS011;8120;48.308;8.914;2023-01-23T09:56:04;21.93;;;13.33;;
16031;SDS011;8120;48.308;8.914;2023-01-23T09:58:45;19.70;;;11.47;;
16031;SDS011;8120;48.308;8.914;2023-01-23T10:01:22;15.30;;;9.17;;
16031;SDS011;8120;48.308;8.914;2023-01-23T10:03:52;17.67;;;10.53;;
16031;SDS011;8120;48.308;8.914;2023-01-23T10:06:21;16.20;;;9.00;;
16031;SDS011;8120;48.308;8.914;2023-01-23T10:08:58;17.03;;;10.70;;
16031;SDS011;8120;48.308;8.914;2023-01-23T10:11:49;20.97;;;10.70;;
16031;SDS011;8120;48.308;8.914;2023-01-23T10:14:30;20.10;;;10.77;;
16031;SDS011;8120;48.308;8.914;2023-01-23T10:17:23;15.90;;;9.47;;
16031;SDS011;8120;48.308;8.914;2023-01-23T10:20:02;17.93;;;10.80;;
16031;SDS011;8120;48.308;8.914;2023-01-23T10:22:43;15.60;;;10.23;;
16031;SDS011;8120;48.308;8.914;2023-01-23T10:25:17;16.93;;;9.80;;
16031;SDS011;8120;48.308;8.914;2023-01-23T10:27:49;19.00;;;9.80;;
16031;SDS011;8120;48.308;8.914;2023-01-23T10:30:18;15.90;;;8.77;;
16031;SDS011;8120;48.308;8.914;2023-01-23T10:32:55;16.43;;;9.43;;
16031;SDS011;8120;48.308;8.914;2023-01-23T10:35:24;18.07;;;9.83;;
16031;SDS011;8120;48.308;8.914;2023-01-23T10:38:01;14.97;;;7.03;;
16031;SDS011;8120;48.308;8.914;2023-01-23T10:40:36;14.77;;;8.17;;
16031;SDS011;8120;48.308;8.914;2023-01-23T10:43:21;14.20;;;7.40;;
16031;SDS011;8120;48.308;8.914;2023-01-23T10:45:50;17.63;;;9.00;;
16031;SDS011;8120;48.308;8.914;2023-01-23T10:48:38;22.07;;;9.50;;
16031;SDS011;8120;48.308;8.914;2023-01-23T10:51:26;17.97;;;10.37;;
16031;SDS011;8120;48.308;8.914;2023-01-23T10:54:00;15.50;;;9.83;;
16031;SDS011;8120;48.308;8.914;2023-01-23T10:56:56;22.93;;;11.47;;
16031;SDS011;8120;48.308;8.914;2023-01-23T10:59:27;16.63;;;9.70;;
16031;SDS011;8120;48.308;8.914;2023-01-23T11:01:59;18.13;;;10.80;;
16031;SDS011;8120;48.308;8.914;2023-01-23T11:04:30;18.63;;;10.43;;
16031;SDS011;8120;48.308;8.914;2023-01-23T11:07:04;17.53;;;9.87;;
16031;SDS011;8120;48.308;8.914;2023-01-23T11:09:45;21.73;;;11.70;;
16031;SDS011;8120;48.308;8.914;2023-01-23T11:12:16;15.77;;;9.73;;
16031;SDS011;8120;48.308;8.914;2023-01-23T11:14:45;22.17;;;12.10;;
16031;SDS011;8120;48.308;8.914;2023-01-23T11:17:21;19.17;;;11.50;;
16031;SDS011;8120;48.308;8.914;2023-01-23T11:19:52;19.27;;;10.77;;
16031;SDS011;8120;48.308;8.914;2023-01-23T11:22:27;20.20;;;10.43;;
16031;SDS011;8120;48.308;8.914;2023-01-23T11:24:57;24.03;;;13.57;;
16031;SDS011;8120;48.308;8.914;2023-01-23T11:27:26;19.73;;;11.00;;
16031;SDS011;8120;48.308;8.914;2023-01-23T11:33:00;18.40;;;9.47;;
16031;SDS011;8120;48.308;8.914;2023-01-23T11:35:46;21.00;;;10.87;;
16031;SDS011;8120;48.308;8.914;2023-01-23T11:38:21;14.77;;;9.00;;
16031;SDS011;8120;48.308;8.914;2023-01-23T11:40:56;16.50;;;9.07;;
16031;SDS011;8120;48.308;8.914;2023-01-23T11:43:24;21.17;;;10.13;;
16031;SDS011;8120;48.308;8.914;2023-01-23T11:45:56;13.63;;;8.03;;
16031;SDS011;8120;48.308;8.914;2023-01-23T11:48:43;20.00;;;11.27;;
16031;SDS011;8120;48.308;8.914;2023-01-23T11:51:27;19.57;;;11.03;;
16031;SDS011;8120;48.308;8.914;2023-01-23T11:54:01;16.23;;;9.20;;
16031;SDS011;8120;48.308;8.914;2023-01-23T11:56:49;18.90;;;9.07;;
16031;SDS011;8120;48.308;8.914;2023-01-23T11:59:33;20.40;;;11.13;;
16031;SDS011;8120;48.308;8.914;2023-01-23T12:05:34;15.20;;;9.30;;
16031;SDS011;8120;48.308;8.914;2023-01-23T12:08:17;22.20;;;9.93;;
16031;SDS011;8120;48.308;8.914;2023-01-23T12:10:53;18.10;;;10.10;;
16031;SDS011;8120;48.308;8.914;2023-01-23T12:13:41;22.83;;;11.00;;
16031;SDS011;8120;48.308;8.914;2023-01-23T12:16:26;14.17;;;8.13;;
16031;SDS011;8120;48.308;8.914;2023-01-23T12:19:17;16.97;;;10.77;;
16031;SDS011;8120;48.308;8.914;2023-01-23T12:21:55;16.27;;;9.20;;
16031;SDS011;8120;48.308;8.914;2023-01-23T12:24:37;20.20;;;10.13;;
16031;SDS011;8120;48.308;8.914;2023-01-23T12:27:26;10.20;;;5.47;;
16031;SDS011;8120;48.308;8.914;2023-01-23T12:30:06;18.03;;;10.13;;
16031;SDS011;8120;48.308;8.914;2023-01-23T12:32:49;13.27;;;6.93;;
16031;SDS011;8120;48.308;8.914;2023-01-23T12:35:26;18.63;;;10.47;;
16031;SDS011;8120;48.308;8.914;2023-01-23T12:38:08;18.90;;;11.17;;
16031;SDS011;8120;48.308;8.914;2023-01-23T12:40:43;10.30;;;6.53;;
16031;SDS011;8120;48.308;8.914;2023-01-23T12:43:15;19.43;;;10.93;;
16031;SDS011;8120;48.308;8.914;2023-01-23T12:45:49;17.80;;;7.10;;
16031;SDS011;8120;48.308;8.914;2023-01-23T12:48:26;16.97;;;9.73;;
16031;SDS011;8120;48.308;8.914;2023-01-23T12:50:59;18.83;;;10.37;;
16031;SDS011;8120;48.308;8.914;2023-01-23T12:53:32;13.47;;;7.30;;
16031;SDS011;8120;48.308;8.914;2023-01-23T12:56:04;19.80;;;9.87;;
16031;SDS011;8120;48.308;8.914;2023-01-23T12:58:36;18.33;;;9.97;;
16031;SDS011;8120;48.308;8.914;2023-01-23T13:01:11;18.53;;;9.97;;
16031;SDS011;8120;48.308;8.914;2023-01-23T13:03:55;17.63;;;10.37;;
16031;SDS011;8120;48.308;8.914;2023-01-23T13:09:41;19.33;;;11.43;;
16031;SDS011;8120;48.308;8.914;2023-01-23T13:12:18;22.30;;;11.60;;
16031;SDS011;8120;48.308;8.914;2023-01-23T13:14:48;14.20;;;8.83;;
16031;SDS011;8120;48.308;8.914;2023-01-23T13:17:39;15.90;;;9.77;;
16031;SDS011;8120;48.308;8.914;2023-01-23T13:23:22;16.90;;;10.17;;
16031;SDS011;8120;48.308;8.914;2023-01-23T13:26:11;20.73;;;12.13;;
16031;SDS011;8120;48.308;8.914;2023-01-23T13:28:56;17.00;;;9.93;;
16031;SDS011;8120;48.308;8.914;2023-01-23T13:31:37;22.30;;;12.20;;
16031;SDS011;8120;48.308;8.914;2023-01-23T13:40:13;16.67;;;8.83;;
16031;SDS011;8120;48.308;8.914;2023-01-23T13:42:42;19.30;;;8.00;;
16031;SDS011;8120;48.308;8.914;2023-01-23T13:45:25;23.53;;;12.27;;
16031;SDS011;8120;48.308;8.914;2023-01-23T13:48:14;16.57;;;11.47;;
16031;SDS011;8120;48.308;8.914;2023-01-23T13:51:34;18.07;;;10.33;;
16031;SDS011;8120;48.308;8.914;2023-01-23T13:54:17;14.57;;;7.87;;
16031;SDS011;8120;48.308;8.914;2023-01-23T13:57:22;19.33;;;11.30;;
16031;SDS011;8120;48.308;8.914;2023-01-23T14:00:04;19.17;;;9.30;;
16031;SDS011;8120;48.308;8.914;2023-01-23T14:02:55;19.67;;;10.23;;
16031;SDS011;8120;48.308;8.914;2023-01-23T14:06:02;15.57;;;8.63;;
16031;SDS011;8120;48.308;8.914;2023-01-23T14:14:53;11.60;;;7.20;;
16031;SDS011;8120;48.308;8.914;2023-01-23T14:21:18;21.47;;;11.40;;
16031;SDS011;8120;48.308;8.914;2023-01-23T14:24:17;25.03;;;12.87;;
16031;SDS011;8120;48.308;8.914;2023-01-23T14:26:47;22.40;;;11.40;;
16031;SDS011;8120;48.308;8.914;2023-01-23T14:29:18;21.37;;;12.07;;
16031;SDS011;8120;48.308;8.914;2023-01-23T14:31:47;27.27;;;13.60;;
16031;SDS011;8120;48.308;8.914;2023-01-23T14:34:17;15.63;;;8.73;;
16031;SDS011;8120;48.308;8.914;2023-01-23T14:36:48;22.40;;;9.93;;
16031;SDS011;8120;48.308;8.914;2023-01-23T14:39:18;23.70;;;13.00;;
16031;SDS011;8120;48.308;8.914;2023-01-23T14:41:49;16.53;;;10.33;;
16031;SDS011;8120;48.308;8.914;2023-01-23T14:44:20;18.03;;;9.77;;
16031;SDS011;8120;48.308;8.914;2023-01-23T14:46:51;22.77;;;12.30;;
16031;SDS011;8120;48.308;8.914;2023-01-23T14:49:22;23.03;;;13.10;;
16031;SDS011;8120;48.308;8.914;2023-01-23T14:51:57;21.43;;;10.93;;
16031;SDS011;8120;48.308;8.914;2023-01-23T14:54:26;22.03;;;12.40;;
16031;SDS011;8120;48.308;8.914;2023-01-23T14:56:58;19.13;;;11.50;;
16031;SDS011;8120;48.308;8.914;2023-01-23T14:59:30;17.90;;;11.13;;
16031;SDS011;8120;48.308;8.914;2023-01-23T15:02:01;20.70;;;10.63;;
16031;SDS011;8120;48.308;8.914;2023-01-23T15:07:34;22.93;;;10.87;;
16031;SDS011;8120;48.308;8.914;2023-01-23T15:10:12;22.00;;;11.07;;
16031;SDS011;8120;48.308;8.914;2023-01-23T15:12:46;22.00;;;12.80;;
16031;SDS011;8120;48.308;8.914;2023-01-23T15:15:16;20.60;;;11.87;;
16031;SDS011;8120;48.308;8.914;2023-01-23T15:17:46;21.73;;;12.60;;
16031;SDS011;8120;48.308;8.914;2023-01-23T15:20:30;26.27;;;13.00;;
16031;SDS011;8120;48.308;8.914;2023-01-23T15:23:23;19.10;;;11.90;;
16031;SDS011;8120;48.308;8.914;2023-01-23T15:28:50;24.00;;;14.20;;
16031;SDS011;8120;48.308;8.914;2023-01-23T15:31:22;25.20;;;14.53;;
16031;SDS011;8120;48.308;8.914;2023-01-23T15:33:53;19.07;;;10.97;;
16031;SDS011;8120;48.308;8.914;2023-01-23T15:36:24;20.30;;;11.63;;
16031;SDS011;8120;48.308;8.914;2023-01-23T15:38:55;28.60;;;12.33;;
16031;SDS011;8120;48.308;8.914;2023-01-23T15:41:37;23.47;;;12.50;;
16031;SDS011;8120;48.308;8.914;2023-01-23T15:44:12;22.13;;;10.13;;